createdAt,value
2023-03-29T04:36:27.631Z,-0.83
2023-03-29T04:39:32.171Z,-0.83
2023-03-29T04:42:35.445Z,-1.36
2023-03-29T04:45:39.357Z,-1.30
2023-03-29T04:48:42.068Z,-1.36
2023-03-29T04:51:44.648Z,-1.15
2023-03-29T04:54:47.277Z,-1.18
2023-03-29T04:57:49.863Z,-0.83
2023-03-29T05:00:55.131Z,-0.38
2023-03-29T05:03:57.750Z,-0.63
2023-03-29T05:07:02.726Z,-0.58
2023-03-29T05:10:06.922Z,-0.32
2023-03-29T05:13:10.380Z,-0.31
2023-03-29T05:16:13.242Z,-0.25
2023-03-29T05:19:16.897Z,-0.13
2023-03-29T05:22:20.579Z,-0.17
2023-03-29T05:25:23.799Z,-0.22
2023-03-29T05:28:27.364Z,-0.02
2023-03-29T05:31:30.718Z,0.02
2023-03-29T05:34:33.517Z,0.15
2023-03-29T05:37:36.330Z,0.00
2023-03-29T05:40:39.351Z,0.31
2023-03-29T05:43:42.394Z,0.24
2023-03-29T05:46:45.409Z,0.22
2023-03-29T05:49:48.220Z,0.64
2023-03-29T05:52:52.219Z,0.64
2023-03-29T05:55:55.377Z,0.88
2023-03-29T05:58:58.790Z,1.02
2023-03-29T06:02:03.997Z,0.97
2023-03-29T06:05:08.087Z,1.20
2023-03-29T06:08:12.254Z,1.22
2023-03-29T06:11:16.147Z,1.52
2023-03-29T06:14:19.750Z,1.74
2023-03-29T06:17:23.054Z,1.58
2023-03-29T06:20:26.514Z,1.69
2023-03-29T06:23:29.711Z,1.81
2023-03-29T06:26:32.571Z,1.96
2023-03-29T06:29:35.303Z,2.11
2023-03-29T06:32:38.095Z,2.15
2023-03-29T06:35:46.130Z,2.32
2023-03-29T06:38:48.867Z,2.34
2023-03-29T06:41:51.629Z,2.46
2023-03-29T06:44:56.215Z,2.55
2023-03-29T06:47:59.703Z,2.65
2023-03-29T06:51:02.638Z,2.61
2023-03-29T06:54:05.806Z,2.76
2023-03-29T06:57:08.691Z,2.72
2023-03-29T07:00:17.969Z,3.07
2023-03-29T07:03:23.610Z,2.83
2023-03-29T07:06:26.601Z,3.19
2023-03-29T07:09:30.189Z,3.11
2023-03-29T07:12:32.836Z,3.28
2023-03-29T07:15:35.765Z,3.32
2023-03-29T07:18:41.779Z,3.58
2023-03-29T07:21:44.444Z,3.48
2023-03-29T07:24:47.077Z,3.47
2023-03-29T07:27:49.702Z,3.49
2023-03-29T07:30:52.905Z,3.65
2023-03-29T07:33:56.245Z,3.93
2023-03-29T07:36:59.421Z,3.57
2023-03-29T07:40:04.414Z,4.09
2023-03-29T07:43:09.180Z,4.03
2023-03-29T07:46:11.806Z,4.05
2023-03-29T07:49:14.448Z,4.24
2023-03-29T07:52:17.519Z,4.29
2023-03-29T07:55:20.166Z,4.45
2023-03-29T07:58:22.764Z,4.25
2023-03-29T08:01:25.783Z,4.39
2023-03-29T08:04:28.572Z,4.33
2023-03-29T08:07:31.446Z,4.41
2023-03-29T08:10:34.761Z,4.51
2023-03-29T08:13:37.529Z,4.55
2023-03-29T08:16:40.191Z,4.60
2023-03-29T08:19:51.034Z,5.03
2023-03-29T08:22:54.734Z,5.48
2023-03-29T08:25:57.299Z,5.54
2023-03-29T08:28:59.888Z,5.32
2023-03-29T08:32:03.042Z,5.21
2023-03-29T08:35:09.768Z,5.23
2023-03-29T08:38:12.797Z,5.27
2023-03-29T08:41:29.431Z,5.41
2023-03-29T08:44:43.261Z,5.52
2023-03-29T08:48:04.544Z,5.62
2023-03-29T08:51:32.791Z,6.01
2023-03-29T08:54:40.527Z,5.98
2023-03-29T08:57:47.604Z,5.87
2023-03-29T09:01:05.159Z,5.67
2023-03-29T09:04:16.669Z,5.95
2023-03-29T09:07:19.256Z,6.54
2023-03-29T09:10:27.329Z,6.43
2023-03-29T09:13:42.546Z,6.59
2023-03-29T09:17:11.818Z,6.57
2023-03-29T09:20:37.526Z,7.01
2023-03-29T09:24:01.324Z,6.90
2023-03-29T09:27:22.525Z,6.87
2023-03-29T09:30:31.184Z,6.93
2023-03-29T09:33:42.967Z,6.97
2023-03-29T09:36:50.006Z,6.92
2023-03-29T09:39:55.931Z,7.17
2023-03-29T09:42:58.699Z,7.36
2023-03-29T09:46:03.387Z,7.51
2023-03-29T09:49:07.135Z,7.34
2023-03-29T09:52:13.107Z,7.20
2023-03-29T09:55:16.908Z,7.50
2023-03-29T09:58:27.682Z,7.30
2023-03-29T10:01:45.425Z,7.40
2023-03-29T10:04:55.310Z,7.23
2023-03-29T10:07:59.058Z,7.24
2023-03-29T10:11:03.743Z,7.53
2023-03-29T10:14:35.393Z,7.15
2023-03-29T10:17:40.560Z,7.21
2023-03-29T10:20:43.187Z,7.46
2023-03-29T10:23:46.235Z,7.74
2023-03-29T10:26:56.463Z,7.50
2023-03-29T10:29:59.783Z,7.37
2023-03-29T10:33:02.560Z,7.68
2023-03-29T10:36:06.847Z,7.80
2023-03-29T10:39:10.173Z,7.51
2023-03-29T10:42:15.044Z,8.08
2023-03-29T10:45:31.415Z,8.12
2023-03-29T10:48:34.852Z,8.31
2023-03-29T10:51:37.620Z,7.99
2023-03-29T10:54:40.509Z,8.00
2023-03-29T10:58:07.755Z,8.39
2023-03-29T11:01:15.604Z,8.39
2023-03-29T11:04:36.537Z,8.36
2023-03-29T11:07:57.615Z,8.33
2023-03-29T11:11:32.995Z,8.30
2023-03-29T11:14:44.625Z,8.42
2023-03-29T11:18:22.815Z,8.44
2023-03-29T11:21:50.094Z,8.62
2023-03-29T11:25:27.790Z,8.72
2023-03-29T11:28:35.609Z,8.76
2023-03-29T11:31:41.788Z,9.04
2023-03-29T11:34:57.502Z,9.25
2023-03-29T11:38:18.134Z,9.12
2023-03-29T11:41:31.907Z,9.31
2023-03-29T11:44:34.574Z,9.26
2023-03-29T11:47:37.873Z,9.68
2023-03-29T11:50:48.695Z,9.70
2023-03-29T11:54:16.438Z,9.58
2023-03-29T11:57:23.913Z,10.06
2023-03-29T12:00:41.068Z,10.05
2023-03-29T12:03:51.013Z,9.88
2023-03-29T12:07:02.510Z,10.09
2023-03-29T12:10:24.248Z,10.08
2023-03-29T12:13:29.167Z,10.10
2023-03-29T12:16:46.868Z,10.33
2023-03-29T12:20:01.188Z,10.00
2023-03-29T12:23:03.782Z,9.82
2023-03-29T12:26:09.246Z,9.91
2023-03-29T12:29:32.796Z,9.86
2023-03-29T12:32:50.590Z,9.83
2023-03-29T12:35:59.661Z,10.08
2023-03-29T12:39:02.436Z,10.13
2023-03-29T12:42:23.258Z,10.14
2023-03-29T12:45:43.121Z,10.11
2023-03-29T12:48:57.358Z,10.22
2023-03-29T12:52:00.354Z,9.96
2023-03-29T12:55:21.881Z,9.97
2023-03-29T12:58:47.631Z,9.84
2023-03-29T13:02:15.624Z,9.86
2023-03-29T13:05:34.547Z,10.23
2023-03-29T13:08:42.564Z,10.10
2023-03-29T13:11:45.071Z,9.63
2023-03-29T13:14:54.477Z,9.87
2023-03-29T13:18:06.358Z,9.74
2023-03-29T13:21:09.348Z,9.89
2023-03-29T13:24:39.777Z,9.87
2023-03-29T13:27:45.512Z,9.58
2023-03-29T13:31:05.795Z,9.49
2023-03-29T13:34:57.756Z,9.79
2023-03-29T13:38:09.148Z,9.99
2023-03-29T13:41:44.636Z,10.02
2023-03-29T13:44:49.270Z,10.01
2023-03-29T13:48:05.871Z,10.00
2023-03-29T13:51:18.259Z,9.96
2023-03-29T13:54:23.940Z,9.85
2023-03-29T13:57:39.253Z,10.02
2023-03-29T14:01:02.088Z,10.07
2023-03-29T14:04:05.551Z,10.28
2023-03-29T14:07:08.329Z,10.15
2023-03-29T14:10:23.309Z,10.25
2023-03-29T14:13:26.091Z,10.15
2023-03-29T14:16:33.246Z,10.27
2023-03-29T14:19:37.010Z,10.42
2023-03-29T14:22:41.996Z,10.20
2023-03-29T14:25:44.571Z,10.56
2023-03-29T14:28:48.896Z,10.18
2023-03-29T14:31:51.585Z,10.15
2023-03-29T14:34:54.161Z,10.16
2023-03-29T14:37:56.802Z,10.10
2023-03-29T14:40:59.921Z,10.16
2023-03-29T14:44:03.383Z,10.21
2023-03-29T14:47:06.034Z,10.14
2023-03-29T14:50:20.144Z,10.29
2023-03-29T14:53:23.336Z,10.32
2023-03-29T14:56:26.577Z,10.17
2023-03-29T14:59:41.968Z,9.92
2023-03-29T15:02:54.746Z,9.83
2023-03-29T15:06:02.524Z,9.98
